Time;durP1;ratioP1;P1;durP2;ratioP2;P2;SDS_P1;SDS_P2;PMS_P1;PMS_P2;Temp;Humidity;BMP_temperature;BMP_pressure;BME280_temperature;BME280_humidity;BME280_pressure;Samples;Min_cycle;Max_cycle;Signal;HPM_P1;HPM_P2
2022/08/31 00:03:59;;;;;;;0.65;0.38;;;25.50;43.00;24.50;101839.00;;;;5090664;28;20084;-71
2022/08/31 00:06:45;;;;;;;0.50;0.40;;;25.50;43.00;24.50;101833.00;;;;5101099;28;20039;-71
2022/08/31 00:09:31;;;;;;;0.95;0.55;;;25.50;42.70;24.50;101830.00;;;;5059066;28;20447;-71
2022/08/31 00:12:18;;;;;;;1.02;0.60;;;25.50;42.60;24.50;101826.00;;;;5095899;28;20042;-71
2022/08/31 00:15:05;;;;;;;0.77;0.50;;;25.40;42.50;24.50;101829.00;;;;5096766;27;20533;-71
2022/08/31 00:17:51;;;;;;;0.60;0.35;;;25.50;42.70;24.50;101826.00;;;;5099994;27;20040;-71
2022/08/31 00:20:37;;;;;;;0.52;0.40;;;25.50;42.80;24.50;101831.00;;;;5104525;27;20043;-71
2022/08/31 00:23:24;;;;;;;0.57;0.30;;;25.50;42.70;24.50;101827.00;;;;5082262;28;20299;-71
2022/08/31 00:26:10;;;;;;;1.10;0.52;;;25.50;42.70;24.50;101822.00;;;;5104166;27;20036;-71
2022/08/31 00:28:56;;;;;;;1.65;0.40;;;25.40;42.50;24.50;101826.00;;;;5087321;27;20040;-72
2022/08/31 00:31:42;;;;;;;0.57;0.30;;;25.50;42.60;24.50;101821.00;;;;5099021;27;20031;-71
2022/08/31 00:34:28;;;;;;;0.90;0.40;;;25.50;42.40;24.50;101821.00;;;;5105333;27;20044;-72
2022/08/31 00:37:14;;;;;;;1.67;0.60;;;25.40;42.20;24.50;101821.00;;;;5097504;27;20048;-71
2022/08/31 00:40:00;;;;;;;0.70;0.40;;;25.50;42.20;24.50;101819.00;;;;5102361;27;20096;-71
2022/08/31 00:42:46;;;;;;;0.47;0.25;;;25.40;42.10;24.50;101821.00;;;;5104544;27;20508;-71
2022/08/31 00:45:32;;;;;;;1.95;0.40;;;25.40;42.20;24.50;101823.00;;;;5102658;27;20040;-71
2022/08/31 00:48:18;;;;;;;0.40;0.30;;;25.40;42.00;24.40;101825.00;;;;5106331;27;20488;-71
2022/08/31 00:51:04;;;;;;;0.45;0.35;;;25.30;41.90;24.50;101829.00;;;;5104397;27;20040;-71
2022/08/31 00:53:50;;;;;;;1.92;0.30;;;25.40;41.80;24.50;101823.00;;;;5073439;28;20062;-71
2022/08/31 00:56:37;;;;;;;1.90;0.57;;;25.40;41.70;24.50;101828.00;;;;5068505;28;20447;-71
2022/08/31 00:59:23;;;;;;;1.23;0.30;;;25.40;41.50;24.50;101829.00;;;;5069424;28;20040;-71
2022/08/31 01:02:09;;;;;;;0.93;0.30;;;25.40;41.50;24.50;101827.00;;;;5087844;27;20062;-71
2022/08/31 01:04:55;;;;;;;0.85;0.40;;;25.30;41.40;24.40;101828.00;;;;5102190;27;20036;-72
2022/08/31 01:07:42;;;;;;;0.90;0.40;;;25.30;41.60;24.50;101834.00;;;;5091430;27;20067;-71
2022/08/31 01:10:34;;;;;;;1.85;0.17;;;25.40;41.60;24.40;101824.00;;;;5065315;28;20048;-71
2022/08/31 01:13:20;;;;;;;0.30;0.30;;;25.40;41.40;24.40;101823.00;;;;5076779;27;20038;-71
2022/08/31 01:16:11;;;;;;;0.30;0.20;;;25.20;41.20;24.40;101823.00;;;;5080091;27;20043;-71
2022/08/31 01:18:58;;;;;;;0.28;0.28;;;25.40;41.30;24.40;101837.00;;;;5077671;27;20085;-71
2022/08/31 01:21:54;;;;;;;0.30;0.20;;;25.40;41.30;24.40;101830.00;;;;5074722;28;20048;-71
2022/08/31 01:24:41;;;;;;;0.55;0.30;;;25.30;41.00;24.40;101825.00;;;;5065597;28;20040;-71
2022/08/31 01:27:30;;;;;;;0.50;0.22;;;25.40;41.00;24.40;101823.00;;;;5086716;27;20166;-71
2022/08/31 01:30:23;;;;;;;0.25;0.20;;;25.30;41.00;24.40;101834.00;;;;5070799;27;20036;-71
2022/08/31 01:33:11;;;;;;;3.78;0.30;;;25.30;41.00;24.40;101835.00;;;;5090524;27;20140;-71
2022/08/31 01:35:57;;;;;;;0.30;0.28;;;25.30;41.00;24.40;101838.00;;;;5086799;27;20036;-71
2022/08/31 01:38:44;;;;;;;0.75;0.30;;;25.20;40.90;24.40;101827.00;;;;5087588;28;20039;-71
2022/08/31 01:41:30;;;;;;;2.13;0.40;;;25.30;41.00;24.40;101832.00;;;;5099873;27;20043;-71
2022/08/31 01:44:18;;;;;;;0.32;0.30;;;25.30;41.00;24.40;101836.00;;;;5081977;27;20590;-71
2022/08/31 01:47:04;;;;;;;0.77;0.38;;;25.30;41.00;24.40;101828.00;;;;5106453;27;20392;-71
2022/08/31 01:49:50;;;;;;;1.45;0.20;;;25.30;41.00;24.40;101827.00;;;;5108673;27;20136;-71
2022/08/31 01:52:36;;;;;;;0.88;0.30;;;25.30;41.00;24.40;101833.00;;;;5095744;28;20048;-71
2022/08/31 01:55:22;;;;;;;1.63;0.35;;;25.20;40.80;24.40;101830.00;;;;5075650;27;20092;-71
2022/08/31 01:58:08;;;;;;;0.40;0.40;;;25.30;40.80;24.40;101837.00;;;;5099778;27;20042;-71
2022/08/31 02:00:55;;;;;;;0.68;0.20;;;25.20;40.70;24.40;101830.00;;;;5094180;27;20043;-71
2022/08/31 02:03:41;;;;;;;0.63;0.40;;;25.30;40.70;24.40;101832.00;;;;5088070;27;20075;-71
2022/08/31 02:06:27;;;;;;;0.82;0.25;;;25.20;40.70;24.30;101828.00;;;;5103089;27;20035;-72
2022/08/31 02:09:13;;;;;;;0.30;0.20;;;25.20;40.70;24.40;101832.00;;;;5096282;27;20042;-71
2022/08/31 02:11:59;;;;;;;1.08;0.40;;;25.20;40.70;24.40;101833.00;;;;5106377;27;20075;-71
2022/08/31 02:14:45;;;;;;;4.28;0.75;;;25.20;40.70;24.30;101835.00;;;;5094558;27;20070;-71
2022/08/31 02:17:31;;;;;;;0.68;0.30;;;25.20;40.70;24.40;101847.00;;;;5094905;27;20043;-71
2022/08/31 02:20:17;;;;;;;0.93;0.30;;;25.20;40.70;24.40;101841.00;;;;5075047;28;20035;-71
2022/08/31 02:23:04;;;;;;;1.05;0.20;;;25.20;40.70;24.30;101844.00;;;;5098257;27;20471;-71
2022/08/31 02:25:50;;;;;;;0.38;0.15;;;25.20;40.60;24.30;101847.00;;;;5096626;28;20097;-71
2022/08/31 02:28:36;;;;;;;0.50;0.30;;;25.20;40.70;24.30;101849.00;;;;5095008;27;20101;-72
2022/08/31 02:31:22;;;;;;;0.40;0.28;;;25.20;40.60;24.30;101856.00;;;;5090603;28;20039;-71
2022/08/31 02:34:08;;;;;;;0.30;0.20;;;25.10;40.60;24.30;101861.00;;;;5094125;28;20044;-71
2022/08/31 02:36:55;;;;;;;0.50;0.30;;;25.20;40.60;24.30;101862.00;;;;5085807;28;20119;-72
2022/08/31 02:39:41;;;;;;;0.22;0.22;;;25.20;40.60;24.30;101865.00;;;;5089799;28;20168;-71
2022/08/31 02:42:29;;;;;;;0.57;0.30;;;25.20;40.60;24.30;101857.00;;;;5095605;28;20044;-71
2022/08/31 02:45:15;;;;;;;0.45;0.20;;;25.20;40.70;24.30;101857.00;;;;5090859;28;20039;-71
2022/08/31 02:48:02;;;;;;;1.13;0.28;;;25.20;40.70;24.30;101848.00;;;;5099130;28;20374;-71
2022/08/31 02:50:50;;;;;;;0.20;0.20;;;25.20;40.60;24.30;101855.00;;;;5097994;28;20076;-71
2022/08/31 02:53:36;;;;;;;;;;;25.20;40.70;24.30;101848.00;;;;5093416;27;20054;-72
2022/08/31 02:56:22;;;;;;;0.77;0.30;;;25.20;41.00;24.30;101846.00;;;;5102231;27;19955;-72
2022/08/31 02:59:08;;;;;;;0.47;0.20;;;25.20;40.60;24.30;101846.00;;;;5109103;27;20048;-72
2022/08/31 03:01:54;;;;;;;0.52;0.30;;;25.20;40.50;24.30;101858.00;;;;5106940;27;20043;-72
2022/08/31 03:04:41;;;;;;;1.48;0.20;;;25.20;40.40;24.30;101850.00;;;;5107780;27;20040;-71
2022/08/31 03:07:27;;;;;;;0.20;0.17;;;25.20;40.30;24.30;101843.00;;;;5086956;27;20556;-71
2022/08/31 03:10:13;;;;;;;0.45;0.25;;;25.20;40.30;24.30;101836.00;;;;5099483;27;20039;-71
2022/08/31 03:12:59;;;;;;;0.77;0.20;;;25.10;40.10;24.20;101833.00;;;;5114865;27;20043;-71
2022/08/31 03:15:45;;;;;;;2.78;0.70;;;25.20;40.00;24.20;101840.00;;;;5098280;27;20507;-71
2022/08/31 03:18:32;;;;;;;0.50;0.30;;;25.10;40.00;24.20;101840.00;;;;5107089;27;20105;-72
2022/08/31 03:21:18;;;;;;;0.87;0.20;;;25.10;40.00;24.20;101831.00;;;;5106803;27;20043;-71
2022/08/31 03:24:04;;;;;;;0.35;0.20;;;25.10;39.90;24.20;101837.00;;;;5106275;27;20798;-71
2022/08/31 03:26:50;;;;;;;0.65;0.28;;;25.10;39.90;24.20;101821.00;;;;5095848;27;20043;-71
2022/08/31 03:29:36;;;;;;;0.32;0.10;;;25.10;40.10;24.20;101829.00;;;;5078741;27;20397;-71
2022/08/31 03:32:26;;;;;;;1.10;0.32;;;25.20;40.00;24.20;101823.00;;;;5114062;27;20555;-71
2022/08/31 03:35:13;;;;;;;0.20;0.20;;;25.10;39.80;24.20;101834.00;;;;5089000;28;20039;-72
2022/08/31 03:38:01;;;;;;;0.30;0.30;;;25.10;39.90;24.20;101836.00;;;;5110521;27;20040;-71
2022/08/31 03:40:49;;;;;;;0.15;0.15;;;25.10;39.80;24.20;101837.00;;;;5106264;27;20505;-71
2022/08/31 03:43:35;;;;;;;0.45;0.20;;;25.10;39.70;24.20;101835.00;;;;5098146;27;20051;-71
2022/08/31 03:46:22;;;;;;;0.20;0.20;;;25.10;39.80;24.20;101836.00;;;;5086281;27;20035;-72
2022/08/31 03:49:09;;;;;;;0.70;0.20;;;25.10;39.80;24.20;101832.00;;;;5094200;27;20453;-72
2022/08/31 03:51:55;;;;;;;0.98;0.30;;;25.10;39.70;24.20;101836.00;;;;5103232;27;20042;-71
2022/08/31 03:54:42;;;;;;;0.30;0.20;;;25.10;39.70;24.20;101830.00;;;;5102521;27;20055;-71
2022/08/31 03:57:28;;;;;;;0.10;0.10;;;25.10;39.60;24.20;101836.00;;;;5098296;27;20036;-71
2022/08/31 04:00:15;;;;;;;0.10;0.10;;;25.10;39.60;24.20;101838.00;;;;5081691;28;20546;-72
2022/08/31 04:03:01;;;;;;;0.32;0.20;;;25.10;39.60;24.20;101833.00;;;;5108634;27;20044;-71
2022/08/31 04:05:47;;;;;;;0.30;0.17;;;25.00;39.60;24.20;101832.00;;;;5099386;28;20044;-71
2022/08/31 04:08:33;;;;;;;0.40;0.20;;;25.00;39.50;24.20;101836.00;;;;5095326;27;20043;-71
2022/08/31 04:11:19;;;;;;;0.25;0.20;;;25.00;39.40;24.20;101840.00;;;;5100884;27;20297;-71
2022/08/31 04:14:05;;;;;;;2.83;0.15;;;25.00;39.40;24.20;101845.00;;;;5092033;27;20035;-71
2022/08/31 04:16:51;;;;;;;0.17;0.15;;;24.90;39.50;24.20;101847.00;;;;5101480;27;20401;-71
2022/08/31 04:19:39;;;;;;;0.73;0.30;;;25.00;39.50;24.20;101838.00;;;;5104297;27;20051;-72
2022/08/31 04:22:25;;;;;;;0.20;0.10;;;25.00;39.40;24.10;101846.00;;;;5094008;27;20044;-71
2022/08/31 04:25:11;;;;;;;0.20;0.20;;;25.00;39.40;24.10;101846.00;;;;5100491;27;20035;-71
2022/08/31 04:27:58;;;;;;;0.65;0.20;;;25.00;39.50;24.10;101849.00;;;;5084534;27;20090;-71
2022/08/31 04:30:44;;;;;;;0.22;0.20;;;25.00;39.40;24.10;101850.00;;;;5100752;27;20472;-71
2022/08/31 04:33:30;;;;;;;0.55;0.30;;;25.00;39.50;24.10;101843.00;;;;5103408;27;20377;-71
2022/08/31 04:36:22;;;;;;;0.30;0.20;;;24.90;39.40;24.10;101849.00;;;;5102686;27;20035;-71
2022/08/31 04:39:08;;;;;;;0.63;0.20;;;25.00;39.50;24.10;101861.00;;;;5091965;28;20036;-71
2022/08/31 04:41:54;;;;;;;0.60;0.20;;;25.00;39.50;24.10;101859.00;;;;5093602;27;20420;-71
2022/08/31 04:44:40;;;;;;;0.13;0.10;;;25.00;39.30;24.10;101861.00;;;;5091586;28;20491;-71
2022/08/31 04:47:26;;;;;;;1.27;0.20;;;25.00;39.30;24.10;101863.00;;;;5095355;28;20087;-71
2022/08/31 04:50:12;;;;;;;1.27;0.30;;;25.00;39.20;24.10;101863.00;;;;5101096;27;20114;-71
2022/08/31 04:52:58;;;;;;;0.17;0.15;;;24.90;39.10;24.10;101865.00;;;;5091622;28;20075;-71
2022/08/31 04:55:44;;;;;;;0.50;0.15;;;25.00;39.20;24.10;101856.00;;;;5100862;27;20040;-72
2022/08/31 04:58:30;;;;;;;0.15;0.15;;;24.90;39.20;24.10;101870.00;;;;5096249;27;20485;-73
2022/08/31 05:01:20;;;;;;;1.17;0.30;;;24.90;39.30;24.10;101865.00;;;;5098116;27;20039;-73
2022/08/31 05:04:07;;;;;;;0.20;0.20;;;24.90;39.20;24.10;101862.00;;;;5082860;28;20481;-73
2022/08/31 05:06:53;;;;;;;0.20;0.20;;;24.90;39.10;24.10;101862.00;;;;5102935;27;20314;-73
2022/08/31 05:09:39;;;;;;;0.35;0.15;;;24.90;39.10;24.00;101869.00;;;;5099120;27;20032;-72
2022/08/31 05:12:25;;;;;;;0.30;0.30;;;24.90;39.10;24.00;101872.00;;;;5098764;27;20047;-71
2022/08/31 05:15:11;;;;;;;0.95;0.20;;;24.90;39.10;24.00;101873.00;;;;5095613;27;20035;-72
2022/08/31 05:17:57;;;;;;;0.17;0.15;;;24.90;39.20;24.00;101873.00;;;;5098076;27;20032;-72
2022/08/31 05:20:43;;;;;;;0.65;0.10;;;24.90;39.30;24.00;101885.00;;;;5098288;27;20044;-71
2022/08/31 05:23:29;;;;;;;1.85;0.40;;;24.90;39.20;24.00;101874.00;;;;5099422;27;20040;-72
2022/08/31 05:26:17;;;;;;;1.67;0.30;;;24.90;39.30;24.00;101882.00;;;;5099316;27;20043;-72
2022/08/31 05:29:05;;;;;;;0.50;0.17;;;24.90;39.10;24.00;101890.00;;;;5103492;27;20040;-72
2022/08/31 05:31:51;;;;;;;1.50;0.32;;;24.80;39.10;24.00;101877.00;;;;5100515;27;20477;-72
2022/08/31 05:34:37;;;;;;;4.97;0.40;;;24.80;39.20;24.00;101888.00;;;;5105174;27;20118;-72
2022/08/31 05:37:23;;;;;;;1.40;0.30;;;24.80;39.20;24.00;101883.00;;;;5097596;27;20058;-72
2022/08/31 05:40:10;;;;;;;0.90;0.28;;;24.80;39.30;24.00;101880.00;;;;5105199;27;20036;-72
2022/08/31 05:42:58;;;;;;;0.40;0.20;;;24.80;39.30;24.00;101886.00;;;;5103503;27;20047;-72
2022/08/31 05:45:44;;;;;;;0.60;0.22;;;24.90;39.30;24.00;101886.00;;;;5097445;27;20036;-72
2022/08/31 05:48:32;;;;;;;0.60;0.30;;;24.80;39.40;24.00;101890.00;;;;5103591;27;20433;-72
2022/08/31 05:51:18;;;;;;;1.55;0.40;;;24.80;39.30;24.00;101894.00;;;;5081171;28;20051;-72
2022/08/31 05:54:05;;;;;;;0.60;0.30;;;24.80;40.10;24.00;101893.00;;;;5108999;27;20481;-72
2022/08/31 05:56:51;;;;;;;1.60;0.25;;;24.80;39.50;24.00;101890.00;;;;5099737;27;20416;-72
2022/08/31 05:59:38;;;;;;;0.30;0.15;;;24.80;39.70;24.00;101896.00;;;;5105623;27;20039;-72
2022/08/31 06:02:24;;;;;;;0.50;0.25;;;24.80;39.70;24.00;101897.00;;;;5105396;27;20483;-71
2022/08/31 06:05:10;;;;;;;2.22;0.38;;;24.80;39.70;24.00;101894.00;;;;5099146;27;20034;-71
2022/08/31 06:07:56;;;;;;;0.20;0.20;;;24.80;39.70;24.00;101899.00;;;;5109614;27;20039;-72
2022/08/31 06:10:42;;;;;;;0.30;0.20;;;24.80;39.80;24.00;101899.00;;;;5097803;27;20028;-72
2022/08/31 06:13:28;;;;;;;2.30;0.30;;;24.90;39.80;24.00;101904.00;;;;5104650;27;20054;-72
2022/08/31 06:16:16;;;;;;;0.73;0.28;;;24.80;39.80;24.00;101904.00;;;;5088315;27;20070;-71
2022/08/31 06:19:05;;;;;;;1.00;0.35;;;24.80;39.80;24.00;101908.00;;;;5098517;27;20057;-71
2022/08/31 06:21:52;;;;;;;1.58;0.30;;;24.80;39.90;24.00;101909.00;;;;5091625;27;20043;-72
2022/08/31 06:24:38;;;;;;;2.30;0.40;;;24.80;39.80;24.00;101903.00;;;;5094804;27;20404;-73
2022/08/31 06:27:25;;;;;;;1.50;0.38;;;24.80;39.90;24.00;101911.00;;;;5098661;27;20047;-71
2022/08/31 06:30:11;;;;;;;2.88;0.30;;;24.80;39.80;24.00;101910.00;;;;5098321;27;20530;-71
2022/08/31 06:32:57;;;;;;;0.50;0.30;;;24.80;40.00;24.00;101911.00;;;;5106770;27;20040;-71
2022/08/31 06:35:43;;;;;;;1.73;0.40;;;24.80;40.00;24.00;101910.00;;;;5099649;27;20485;-71
2022/08/31 06:38:29;;;;;;;3.70;1.85;;;24.80;40.00;24.00;101910.00;;;;5093390;28;20094;-71
2022/08/31 06:41:25;;;;;;;1.00;0.50;;;24.80;40.10;24.00;101918.00;;;;5101605;28;20042;-71
2022/08/31 06:44:12;;;;;;;0.20;0.20;;;24.80;40.10;24.00;101921.00;;;;5091312;28;20460;-71
2022/08/31 06:46:58;;;;;;;0.75;0.32;;;24.80;40.20;24.00;101921.00;;;;5102062;28;20040;-71
2022/08/31 06:49:44;;;;;;;0.40;0.40;;;24.80;40.20;24.00;101914.00;;;;5108923;28;20047;-71
2022/08/31 06:52:31;;;;;;;0.90;0.43;;;24.80;40.30;24.00;101911.00;;;;5092352;28;20444;-71
2022/08/31 06:55:17;;;;;;;2.20;0.32;;;24.80;40.30;24.00;101906.00;;;;5083823;28;20454;-71
2022/08/31 06:58:03;;;;;;;0.98;0.30;;;24.80;41.10;24.00;101905.00;;;;5094256;28;20047;-71
2022/08/31 07:00:49;;;;;;;0.95;0.20;;;24.80;40.40;24.00;101912.00;;;;5094939;28;20134;-72
2022/08/31 07:03:36;;;;;;;0.70;0.35;;;24.80;41.20;24.00;101908.00;;;;5103890;28;20232;-71
2022/08/31 07:06:32;;;;;;;0.80;0.30;;;24.80;40.50;24.00;101919.00;;;;5077701;28;20047;-71
2022/08/31 07:09:18;;;;;;;0.77;0.30;;;24.80;40.60;24.00;101918.00;;;;5085877;28;20036;-71
2022/08/31 07:12:05;;;;;;;2.22;0.40;;;24.80;40.70;24.00;101918.00;;;;5097877;28;20073;-71
2022/08/31 07:14:51;;;;;;;2.20;0.40;;;24.80;40.80;24.00;101922.00;;;;5102760;28;20058;-71
2022/08/31 07:17:37;;;;;;;2.67;0.40;;;24.80;40.80;24.00;101926.00;;;;5101492;28;20042;-71
2022/08/31 07:20:23;;;;;;;2.72;0.57;;;24.80;40.80;24.00;101929.00;;;;5096770;28;20667;-71
2022/08/31 07:23:09;;;;;;;1.35;0.60;;;24.80;40.90;24.00;101935.00;;;;5106599;28;20051;-71
2022/08/31 07:25:56;;;;;;;0.85;0.47;;;24.80;40.70;24.00;101942.00;;;;5097740;28;20040;-71
2022/08/31 07:28:42;;;;;;;0.47;0.40;;;24.80;40.80;24.00;101941.00;;;;5103102;28;20058;-71
2022/08/31 07:31:36;;;;;;;1.20;0.63;;;24.80;40.90;24.00;101932.00;;;;5080570;28;20089;-71
2022/08/31 07:34:25;;;;;;;0.77;0.38;;;24.80;40.90;24.00;101942.00;;;;5061950;28;20145;-71
2022/08/31 07:43:21;;;;;;;3.80;0.30;;;24.80;41.00;24.00;101948.00;;;;5096172;27;20077;-71
2022/08/31 07:46:07;;;;;;;0.77;0.50;;;24.80;41.10;24.00;101951.00;;;;5102565;27;20213;-71
2022/08/31 07:48:53;;;;;;;1.40;0.35;;;24.80;41.10;24.00;101950.00;;;;5082399;28;20271;-71
2022/08/31 07:51:50;;;;;;;0.65;0.38;;;24.90;41.40;24.00;101953.00;;;;5101185;27;20048;-71
2022/08/31 07:54:36;;;;;;;0.82;0.40;;;24.80;41.40;24.00;101952.00;;;;5088270;27;20573;-72
2022/08/31 07:57:28;;;;;;;2.87;0.37;;;24.90;41.30;24.00;101953.00;;;;5105403;27;20053;-71
2022/08/31 08:00:19;;;;;;;0.68;0.35;;;24.90;41.40;24.00;101959.00;;;;5099291;27;20954;-71
2022/08/31 08:03:06;;;;;;;1.02;0.43;;;24.90;41.40;24.00;101953.00;;;;5084742;28;20074;-72
2022/08/31 08:05:54;;;;;;;3.22;0.45;;;24.90;41.40;24.00;101960.00;;;;5105388;27;20040;-71
2022/08/31 08:08:41;;;;;;;0.80;0.43;;;24.90;41.50;24.00;101956.00;;;;5109303;27;20043;-71
2022/08/31 08:11:28;;;;;;;1.02;0.50;;;24.90;41.60;24.00;101968.00;;;;5086398;28;20064;-71
2022/08/31 08:14:14;;;;;;;1.40;0.40;;;24.90;41.70;24.00;101958.00;;;;5112579;27;20126;-72
2022/08/31 08:17:01;;;;;;;0.40;0.38;;;24.90;41.80;24.00;101972.00;;;;5094637;27;20071;-72
2022/08/31 08:19:47;;;;;;;0.57;0.40;;;24.90;41.90;24.00;101974.00;;;;5073983;28;20059;-72
2022/08/31 08:22:37;;;;;;;1.73;0.50;;;24.90;42.00;24.00;101965.00;;;;5104854;27;20056;-71
2022/08/31 08:25:23;;;;;;;2.25;0.60;;;24.90;42.10;24.00;101968.00;;;;5086513;27;20500;-72
2022/08/31 08:28:16;;;;;;;0.38;0.30;;;24.90;42.20;24.00;101972.00;;;;5098063;28;20047;-72
2022/08/31 08:31:02;;;;;;;1.05;0.43;;;24.90;42.20;24.00;101971.00;;;;5104123;27;20043;-71
2022/08/31 08:33:49;;;;;;;0.30;0.30;;;25.00;42.20;24.00;101965.00;;;;5107061;27;20497;-71
2022/08/31 08:36:36;;;;;;;1.10;0.40;;;24.90;42.30;24.00;101965.00;;;;5096642;27;20374;-71
2022/08/31 08:39:23;;;;;;;1.42;0.50;;;25.00;42.20;24.00;101975.00;;;;5081645;27;20055;-72
2022/08/31 08:42:10;;;;;;;;;;;25.00;42.30;24.00;101984.00;;;;5103360;27;20043;-72
2022/08/31 08:44:57;;;;;;;1.15;0.60;;;25.00;42.10;24.00;101979.00;;;;5082574;28;20029;-71
2022/08/31 08:47:48;;;;;;;1.08;0.57;;;25.00;42.00;24.00;101977.00;;;;5090200;28;20040;-71
2022/08/31 08:50:35;;;;;;;0.85;0.40;;;25.00;42.20;24.00;101984.00;;;;5073889;28;20070;-71
2022/08/31 08:53:24;;;;;;;2.22;0.65;;;25.00;42.50;24.00;101983.00;;;;5085334;27;20043;-72
2022/08/31 08:56:10;;;;;;;2.80;0.50;;;25.00;42.50;24.00;101988.00;;;;5076395;27;20499;-72
2022/08/31 08:58:56;;;;;;;0.43;0.38;;;25.00;42.50;24.00;101994.00;;;;5070165;27;20079;-71
2022/08/31 09:01:45;;;;;;;2.53;0.63;;;25.00;42.50;24.00;101983.00;;;;5092583;27;20486;-72
2022/08/31 09:04:58;;;;;;;1.33;0.52;;;25.00;42.60;24.00;101989.00;;;;5076387;28;20058;-71
2022/08/31 09:07:59;;;;;;;0.90;0.52;;;25.00;42.50;24.00;101989.00;;;;5098539;28;20386;-71
2022/08/31 09:11:18;;;;;;;0.73;0.57;;;25.00;42.50;24.00;101984.00;;;;5081897;28;20044;-71
2022/08/31 09:14:46;;;;;;;1.08;0.40;;;25.00;42.50;24.00;101984.00;;;;5098646;27;20524;-72
2022/08/31 09:17:58;;;;;;;0.68;0.52;;;25.00;42.60;24.00;101983.00;;;;5085104;27;20051;-71
2022/08/31 09:21:24;;;;;;;0.52;0.40;;;25.00;42.70;24.00;101989.00;;;;5089913;28;20047;-71
2022/08/31 09:24:13;;;;;;;1.25;0.50;;;25.00;42.60;24.00;101986.00;;;;5083235;27;20039;-72
2022/08/31 09:27:19;;;;;;;1.73;0.60;;;25.00;42.70;24.00;101979.00;;;;5113187;27;20122;-71
2022/08/31 09:30:06;;;;;;;0.77;0.40;;;25.00;42.60;24.00;101978.00;;;;5091899;27;20032;-72
2022/08/31 09:32:55;;;;;;;0.82;0.28;;;25.00;42.80;24.00;101963.00;;;;5083441;27;20111;-71
2022/08/31 09:35:42;;;;;;;3.65;0.73;;;25.00;42.80;24.00;101968.00;;;;5083580;28;20050;-71
2022/08/31 09:38:31;;;;;;;1.20;0.43;;;25.00;42.80;24.00;101972.00;;;;5083359;27;20039;-71
2022/08/31 09:41:32;;;;;;;0.63;0.50;;;24.90;42.80;24.10;101970.00;;;;5079886;27;20465;-71
2022/08/31 09:44:33;;;;;;;1.17;0.40;;;25.00;42.80;24.10;101967.00;;;;5092202;27;20046;-71
2022/08/31 09:47:59;;;;;;;0.70;0.57;;;25.00;42.70;24.10;101980.00;;;;5086048;27;20468;-72
2022/08/31 09:50:46;;;;;;;1.23;0.60;;;25.00;42.70;24.10;101975.00;;;;5007566;28;20365;-72
2022/08/31 09:57:07;;;;;;;1.05;0.47;;;25.10;42.90;24.10;101969.00;;;;5080625;28;20044;-71
2022/08/31 09:59:54;;;;;;;3.85;0.63;;;25.00;43.00;24.10;101969.00;;;;5085187;28;20118;-72
2022/08/31 10:02:40;;;;;;;1.63;0.50;;;25.00;42.90;24.10;101959.00;;;;5101623;27;20441;-71
2022/08/31 10:05:39;;;;;;;1.65;0.55;;;25.00;43.00;24.10;101971.00;;;;5075590;28;20286;-71
2022/08/31 10:08:56;;;;;;;1.40;0.60;;;25.00;43.00;24.10;101956.00;;;;5100316;27;20039;-71
2022/08/31 10:11:46;;;;;;;1.13;0.50;;;25.00;43.00;24.10;101968.00;;;;5087948;27;20481;-71
2022/08/31 10:14:56;;;;;;;1.05;0.60;;;25.10;43.20;24.10;101957.00;;;;5082902;27;20040;-71
2022/08/31 10:18:01;;;;;;;1.17;0.60;;;25.00;42.90;24.10;101953.00;;;;5090914;27;20071;-71
2022/08/31 10:21:07;;;;;;;1.73;0.70;;;25.00;43.20;24.10;101952.00;;;;5092633;27;20119;-71
2022/08/31 10:24:27;;;;;;;1.77;0.57;;;25.00;43.00;24.10;101952.00;;;;5068820;28;20045;-71
2022/08/31 10:27:25;;;;;;;1.15;0.40;;;25.10;43.00;24.10;101947.00;;;;5083733;28;20047;-71
2022/08/31 10:30:39;;;;;;;;;;;25.10;43.00;24.10;101959.00;;;;5079851;28;20046;-71
2022/08/31 10:37:30;;;;;;;0.77;0.70;;;25.10;43.00;24.10;101944.00;;;;5083269;28;20043;-72
2022/08/31 10:40:23;;;;;;;3.13;0.80;;;25.10;42.70;24.10;101951.00;;;;5090542;27;20059;-72
2022/08/31 10:43:16;;;;;;;4.60;0.50;;;25.20;43.00;24.10;101949.00;;;;5073659;28;20047;-71
2022/08/31 10:46:02;;;;;;;0.52;0.47;;;25.10;42.90;24.10;101949.00;;;;5076062;28;20115;-71
2022/08/31 10:48:55;;;;;;;2.72;0.40;;;25.00;42.80;24.10;101939.00;;;;5097741;28;20039;-71
2022/08/31 10:51:54;;;;;;;0.88;0.40;;;25.10;43.00;24.10;101938.00;;;;5085351;28;20397;-71
2022/08/31 10:54:55;;;;;;;4.70;0.52;;;25.10;43.00;24.10;101938.00;;;;5092013;28;20036;-71
2022/08/31 10:58:17;;;;;;;1.77;0.57;;;25.10;43.00;24.10;101941.00;;;;5078965;28;20052;-71
2022/08/31 11:01:22;;;;;;;1.13;0.45;;;25.10;43.00;24.10;101945.00;;;;5106846;28;20537;-71
2022/08/31 11:04:50;;;;;;;0.45;0.40;;;25.10;42.90;24.10;101941.00;;;;5089897;28;20047;-71
2022/08/31 11:08:18;;;;;;;0.45;0.28;;;25.20;42.90;24.10;101937.00;;;;5091852;28;20489;-71
2022/08/31 11:11:07;;;;;;;0.63;0.43;;;25.20;42.90;24.20;101939.00;;;;5071801;28;20032;-71
2022/08/31 11:14:13;;;;;;;0.70;0.38;;;25.20;42.90;24.20;101937.00;;;;5099548;27;20489;-71
2022/08/31 11:17:54;;;;;;;0.85;0.50;;;25.20;42.90;24.20;101948.00;;;;5089397;27;20386;-71
2022/08/31 11:21:18;;;;;;;1.00;0.47;;;25.20;42.90;24.20;101945.00;;;;5085512;27;20558;-71
2022/08/31 11:24:56;;;;;;;0.47;0.45;;;25.20;42.90;24.20;101941.00;;;;5081575;28;20047;-71
2022/08/31 11:27:49;;;;;;;0.95;0.55;;;25.20;43.00;24.20;101932.00;;;;5090745;27;20081;-71
2022/08/31 11:30:40;;;;;;;0.82;0.40;;;25.20;42.70;24.20;101930.00;;;;5089028;28;20039;-71
2022/08/31 11:33:27;;;;;;;1.10;0.50;;;25.20;42.80;24.20;101925.00;;;;5077653;27;20129;-71
2022/08/31 11:36:13;;;;;;;0.60;0.40;;;25.30;42.80;24.20;101928.00;;;;5090131;27;20050;-71
2022/08/31 11:39:02;;;;;;;0.70;0.40;;;25.20;42.70;24.20;101929.00;;;;5081214;27;20109;-71
2022/08/31 11:41:49;;;;;;;1.23;0.52;;;25.20;42.70;24.20;101920.00;;;;5104828;27;20044;-71
2022/08/31 11:44:38;;;;;;;0.93;0.40;;;25.30;42.80;24.30;101918.00;;;;5083316;27;20039;-71
2022/08/31 11:47:26;;;;;;;0.85;0.50;;;25.30;42.90;24.20;101911.00;;;;5108858;27;20484;-71
2022/08/31 11:50:21;;;;;;;2.17;0.43;;;25.30;42.80;24.30;101916.00;;;;5096457;28;20455;-71
2022/08/31 11:53:39;;;;;;;0.82;0.60;;;25.30;42.70;24.30;101913.00;;;;5104262;27;20114;-71
2022/08/31 11:56:37;;;;;;;2.05;0.40;;;25.30;42.70;24.30;101910.00;;;;5071403;27;20038;-71
2022/08/31 11:59:30;;;;;;;0.93;0.40;;;25.30;42.70;24.30;101917.00;;;;5073378;28;20071;-71
2022/08/31 12:02:19;;;;;;;0.50;0.45;;;25.40;42.90;24.30;101906.00;;;;5095229;27;20551;-71
2022/08/31 12:05:05;;;;;;;2.47;0.60;;;25.40;42.80;24.30;101909.00;;;;5110037;27;20051;-71
2022/08/31 12:07:51;;;;;;;0.65;0.40;;;25.40;42.70;24.30;101908.00;;;;5083115;28;20047;-71
2022/08/31 12:10:49;;;;;;;1.88;0.50;;;25.30;42.60;24.30;101908.00;;;;5089990;28;20043;-71
2022/08/31 12:13:54;;;;;;;2.28;0.50;;;25.40;42.70;24.30;101909.00;;;;5096255;27;20122;-72
2022/08/31 12:16:57;;;;;;;1.08;0.50;;;25.40;42.70;24.30;101906.00;;;;5075730;28;20047;-71
2022/08/31 12:19:56;;;;;;;0.68;0.55;;;25.40;42.70;24.30;101898.00;;;;5089255;27;20055;-72
2022/08/31 12:26:29;;;;;;;;;;;25.40;42.60;24.30;101894.00;;;;5086254;28;20031;-71
2022/08/31 12:29:34;;;;;;;0.52;0.30;;;25.50;42.70;24.30;101896.00;;;;5104785;27;19915;-71
2022/08/31 12:32:31;;;;;;;1.00;0.70;;;25.50;42.60;24.30;101886.00;;;;5091022;27;20144;-71
2022/08/31 12:35:25;;;;;;;0.65;0.43;;;25.50;42.60;24.30;101896.00;;;;5065402;28;20036;-71
2022/08/31 12:38:20;;;;;;;0.65;0.43;;;25.50;42.60;24.30;101896.00;;;;5106722;27;20040;-71
2022/08/31 12:41:11;;;;;;;0.70;0.40;;;25.50;42.60;24.30;101883.00;;;;5101561;27;20032;-71
2022/08/31 12:43:57;;;;;;;0.60;0.40;;;25.50;42.70;24.30;101890.00;;;;5072186;28;20076;-71
2022/08/31 12:47:03;;;;;;;2.70;0.75;;;25.50;42.60;24.30;101891.00;;;;5085963;28;20051;-71
2022/08/31 12:49:48;;;;;;;0.47;0.32;;;25.50;42.70;24.30;101893.00;;;;5079430;27;20040;-71